Georgetown, Ohio
Current Conditions -  °F | °C
As of 6:15 AM on Sunday 21 Dec 2014 (Local Time) from KFGX Reporting Station
Haze Haze  
Wind Chill: 29°   Ceiling: 1800
Heat Index: 29°   Visibility: 5mi
Dew Point: 27°   Wind: 0mph
Humidity: 90%   Direction: NA
Pressure: 30.31"   Gusts: NA
Location:  38.86°N, 83.9°W
Report Text: KFGX 211115Z AUTO 00000KT 5SM BR OVC018 M01/M03 A3031 RMK AO2 T10151030
Loading
Personal Weather Stations






























Interactive Weather Map New forecast layout! Learn more

10-Day Weather Forecast

Advertisements
Track Severe Weather on mobile